< < Back
Terminal Aerodrome Forecast


Current Version              Previous Versions:   1  2  3  4  5  6  7  8  9  

Terminal Aerodrome Forecast

178
FTUS42 KFFC 021106 AAC
TAFATL
TAF AMD
KATL 021106Z 0211/0312 26005KT P6SM SCT040 BKN150
     FM021400 27008KT P6SM BKN050
     FM021600 25008KT P6SM VCSH BKN050
      TEMPO 0218/0222 VRB15G25KT 6SM TSRA BKN035CB
     FM030000 24007KT P6SM BKN100
     FM030900 23006KT P6SM OVC015=

Latest METAR

856
SAUS70 KWBC 021200
MTRATL
METAR KATL 021152Z 23008KT 10SM FEW042 SCT150 BKN250 21/18 A3004 RMK AO2
SLP164 70061 T02110178 10211 20200 50010


USA.gov is the U.S. government's official web portal to all federal, state and local government web resources and services.